Avery, Oklahoma
Current Conditions -  °F | °C
As of 2:15 AM on Monday 26 Jan 2015 (Local Time) from KCUH Reporting Station
Clear Clear  
Wind Chill: 30°   Ceiling: Unl
Heat Index: 30°   Visibility: 10mi
Dew Point: 30°   Wind: 3mph
Humidity: 100%   Direction: 280°W
Pressure: 30.18"   Gusts: NA
Location:  35.9968°N, 96.7376°W
Report Text: KCUH 260815Z AUTO 28003KT 10SM CLR M01/M01 A3018 RMK AO2
Loading
Personal Weather Stations






























Interactive Weather Map New forecast layout! Learn more

10-Day Weather Forecast

Advertisements
Track Severe Weather on mobile